sensor_id;sensor_type;location;lat;lon;timestamp;pressure;altitude;pressure_sealevel;temperature;humidity
61674;BME280;47573;43.832;5.974;2023-04-06T00:03:11;95213.19;;;23.56;58.30
61674;BME280;47573;43.832;5.974;2023-04-06T00:09:53;95218.56;;;23.51;58.49
61674;BME280;47573;43.832;5.974;2023-04-06T00:16:33;95205.38;;;23.43;58.55
61674;BME280;47573;43.832;5.974;2023-04-06T00:23:14;95197.94;;;23.39;58.33
61674;BME280;47573;43.832;5.974;2023-04-06T00:29:56;95206.84;;;23.34;58.36
61674;BME280;47573;43.832;5.974;2023-04-06T00:36:36;95204.00;;;23.29;58.26
61674;BME280;47573;43.832;5.974;2023-04-06T00:43:17;95198.47;;;23.24;58.48
61674;BME280;47573;43.832;5.974;2023-04-06T00:49:59;95189.47;;;23.24;58.57
61674;BME280;47573;43.832;5.974;2023-04-06T00:56:41;95190.78;;;23.21;58.47
61674;BME280;47573;43.832;5.974;2023-04-06T01:03:22;95188.00;;;23.16;58.14
61674;BME280;47573;43.832;5.974;2023-04-06T01:10:05;95188.97;;;23.10;58.32
61674;BME280;47573;43.832;5.974;2023-04-06T01:16:46;95173.13;;;23.07;58.38
61674;BME280;47573;43.832;5.974;2023-04-06T01:23:30;95175.75;;;23.02;58.33
61674;BME280;47573;43.832;5.974;2023-04-06T01:30:11;95176.00;;;23.00;58.11
61674;BME280;47573;43.832;5.974;2023-04-06T01:36:51;95171.78;;;22.93;58.28
61674;BME280;47573;43.832;5.974;2023-04-06T01:43:33;95176.09;;;22.89;58.37
61674;BME280;47573;43.832;5.974;2023-04-06T01:50:14;95167.81;;;22.84;58.36
61674;BME280;47573;43.832;5.974;2023-04-06T01:56:55;95162.88;;;22.81;58.19
61674;BME280;47573;43.832;5.974;2023-04-06T02:03:37;95164.09;;;22.73;58.21
61674;BME280;47573;43.832;5.974;2023-04-06T02:10:17;95168.16;;;22.71;58.35
61674;BME280;47573;43.832;5.974;2023-04-06T02:16:58;95169.09;;;22.65;58.75
61674;BME280;47573;43.832;5.974;2023-04-06T02:23:40;95151.59;;;22.61;58.56
61674;BME280;47573;43.832;5.974;2023-04-06T02:30:20;95145.47;;;22.54;58.60
61674;BME280;47573;43.832;5.974;2023-04-06T02:37:01;95129.63;;;22.51;58.62
61674;BME280;47573;43.832;5.974;2023-04-06T02:43:43;95133.31;;;22.45;58.88
61674;BME280;47573;43.832;5.974;2023-04-06T02:50:23;95132.41;;;22.39;58.69
61674;BME280;47573;43.832;5.974;2023-04-06T02:57:04;95119.03;;;22.37;58.62
61674;BME280;47573;43.832;5.974;2023-04-06T03:03:46;95123.31;;;22.33;58.63
61674;BME280;47573;43.832;5.974;2023-04-06T03:10:27;95128.09;;;22.26;58.75
61674;BME280;47573;43.832;5.974;2023-04-06T03:17:07;95131.28;;;22.23;58.73
61674;BME280;47573;43.832;5.974;2023-04-06T03:23:49;95138.28;;;22.19;58.91
61674;BME280;47573;43.832;5.974;2023-04-06T03:30:30;95140.66;;;22.16;59.05
61674;BME280;47573;43.832;5.974;2023-04-06T03:37:10;95149.28;;;22.13;58.87
61674;BME280;47573;43.832;5.974;2023-04-06T03:43:52;95153.56;;;22.09;58.72
61674;BME280;47573;43.832;5.974;2023-04-06T03:50:33;95151.34;;;22.06;59.00
61674;BME280;47573;43.832;5.974;2023-04-06T03:57:14;95160.81;;;22.03;58.89
61674;BME280;47573;43.832;5.974;2023-04-06T04:03:55;95163.78;;;22.02;58.66
61674;BME280;47573;43.832;5.974;2023-04-06T04:10:36;95172.16;;;22.00;58.66
61674;BME280;47573;43.832;5.974;2023-04-06T04:17:17;95187.28;;;21.96;58.62
61674;BME280;47573;43.832;5.974;2023-04-06T04:23:58;95185.66;;;21.95;58.55
61674;BME280;47573;43.832;5.974;2023-04-06T04:30:39;95185.53;;;21.90;58.56
61674;BME280;47573;43.832;5.974;2023-04-06T04:37:20;95187.06;;;21.86;58.76
61674;BME280;47573;43.832;5.974;2023-04-06T04:44:01;95188.38;;;21.84;58.57
61674;BME280;47573;43.832;5.974;2023-04-06T04:50:42;95181.53;;;21.81;58.68
61674;BME280;47573;43.832;5.974;2023-04-06T04:57:23;95203.72;;;21.78;58.64
61674;BME280;47573;43.832;5.974;2023-04-06T05:04:05;95212.97;;;21.77;58.62
61674;BME280;47573;43.832;5.974;2023-04-06T05:10:45;95229.13;;;21.72;58.97
61674;BME280;47573;43.832;5.974;2023-04-06T05:17:26;95229.59;;;21.69;58.72
61674;BME280;47573;43.832;5.974;2023-04-06T05:24:08;95239.66;;;21.69;59.04
61674;BME280;47573;43.832;5.974;2023-04-06T05:30:48;95246.63;;;21.65;58.81
61674;BME280;47573;43.832;5.974;2023-04-06T05:37:29;95261.03;;;21.65;58.76
61674;BME280;47573;43.832;5.974;2023-04-06T05:44:11;95277.81;;;21.62;58.78
61674;BME280;47573;43.832;5.974;2023-04-06T05:50:51;95276.38;;;21.59;58.71
61674;BME280;47573;43.832;5.974;2023-04-06T05:57:32;95276.16;;;21.61;58.58
61674;BME280;47573;43.832;5.974;2023-04-06T06:04:14;95269.91;;;21.60;58.75
61674;BME280;47573;43.832;5.974;2023-04-06T06:10:55;95271.88;;;21.65;58.47
61674;BME280;47573;43.832;5.974;2023-04-06T06:17:35;95280.63;;;21.67;58.53
61674;BME280;47573;43.832;5.974;2023-04-06T06:24:17;95296.69;;;21.57;58.77
61674;BME280;47573;43.832;5.974;2023-04-06T06:30:58;95302.38;;;21.67;58.13
61674;BME280;47573;43.832;5.974;2023-04-06T06:37:41;95297.66;;;21.74;57.80
61674;BME280;47573;43.832;5.974;2023-04-06T06:44:23;95289.66;;;21.79;57.66
61674;BME280;47573;43.832;5.974;2023-04-06T06:51:04;95278.78;;;21.79;57.75
61674;BME280;47573;43.832;5.974;2023-04-06T06:57:44;95294.75;;;21.87;57.10
61674;BME280;47573;43.832;5.974;2023-04-06T07:04:26;95291.09;;;21.93;57.17
61674;BME280;47573;43.832;5.974;2023-04-06T07:11:07;95285.16;;;21.96;56.62
61674;BME280;47573;43.832;5.974;2023-04-06T07:17:47;95293.91;;;21.98;57.11
61674;BME280;47573;43.832;5.974;2023-04-06T07:24:30;95303.72;;;21.99;56.91
61674;BME280;47573;43.832;5.974;2023-04-06T07:31:11;95299.78;;;21.72;47.92
61674;BME280;47573;43.832;5.974;2023-04-06T07:37:52;95306.63;;;21.51;45.39
61674;BME280;47573;43.832;5.974;2023-04-06T07:44:34;95317.72;;;21.50;44.92
61674;BME280;47573;43.832;5.974;2023-04-06T07:51:14;95323.72;;;21.40;44.13
61674;BME280;47573;43.832;5.974;2023-04-06T07:57:55;95314.63;;;21.35;43.44
61674;BME280;47573;43.832;5.974;2023-04-06T08:04:37;95322.28;;;21.38;43.63
61674;BME280;47573;43.832;5.974;2023-04-06T08:11:17;95319.56;;;21.38;43.33
61674;BME280;47573;43.832;5.974;2023-04-06T08:17:58;95327.41;;;21.46;43.66
61674;BME280;47573;43.832;5.974;2023-04-06T08:24:40;95326.34;;;21.47;42.76
61674;BME280;47573;43.832;5.974;2023-04-06T08:31:21;95327.78;;;21.61;42.92
61674;BME280;47573;43.832;5.974;2023-04-06T08:38:01;95330.97;;;21.58;42.11
61674;BME280;47573;43.832;5.974;2023-04-06T08:44:44;95340.91;;;21.64;42.00
61674;BME280;47573;43.832;5.974;2023-04-06T08:51:25;95337.09;;;21.65;42.24
61674;BME280;47573;43.832;5.974;2023-04-06T08:58:06;95348.97;;;21.82;41.97
61674;BME280;47573;43.832;5.974;2023-04-06T09:04:52;95353.03;;;21.91;45.17
61674;BME280;47573;43.832;5.974;2023-04-06T09:11:44;95344.97;;;21.96;46.16
61674;BME280;47573;43.832;5.974;2023-04-06T09:18:28;95338.47;;;21.97;47.17
61674;BME280;47573;43.832;5.974;2023-04-06T09:25:18;95344.41;;;22.06;47.32
61674;BME280;47573;43.832;5.974;2023-04-06T09:32:02;95355.16;;;22.12;47.67
61674;BME280;47573;43.832;5.974;2023-04-06T09:38:53;95356.34;;;22.16;47.88
61674;BME280;47573;43.832;5.974;2023-04-06T09:45:35;95352.09;;;22.20;48.11
61674;BME280;47573;43.832;5.974;2023-04-06T09:52:16;95348.03;;;22.34;48.29
61674;BME280;47573;43.832;5.974;2023-04-06T09:59:02;95352.06;;;22.44;47.92
61674;BME280;47573;43.832;5.974;2023-04-06T10:05:50;95352.06;;;22.44;48.05
61674;BME280;47573;43.832;5.974;2023-04-06T10:12:32;95348.13;;;22.51;48.30
61674;BME280;47573;43.832;5.974;2023-04-06T10:19:16;95336.28;;;22.57;48.59
61674;BME280;47573;43.832;5.974;2023-04-06T10:26:01;95329.09;;;22.63;48.53
61674;BME280;47573;43.832;5.974;2023-04-06T10:32:42;95326.47;;;22.68;49.28
61674;BME280;47573;43.832;5.974;2023-04-06T10:39:24;95324.34;;;22.70;50.26
61674;BME280;47573;43.832;5.974;2023-04-06T10:46:07;95333.78;;;22.79;50.55
61674;BME280;47573;43.832;5.974;2023-04-06T10:52:59;95325.13;;;22.82;50.59
61674;BME280;47573;43.832;5.974;2023-04-06T10:59:42;95316.00;;;22.88;50.37
61674;BME280;47573;43.832;5.974;2023-04-06T11:06:25;95316.69;;;22.95;50.62
61674;BME280;47573;43.832;5.974;2023-04-06T11:13:06;95307.44;;;22.96;50.40
61674;BME280;47573;43.832;5.974;2023-04-06T11:19:47;95304.50;;;22.97;50.46
61674;BME280;47573;43.832;5.974;2023-04-06T11:26:37;95310.25;;;23.01;50.95
61674;BME280;47573;43.832;5.974;2023-04-06T11:33:21;95298.91;;;23.04;51.08
61674;BME280;47573;43.832;5.974;2023-04-06T11:40:01;95292.47;;;23.10;50.62
61674;BME280;47573;43.832;5.974;2023-04-06T11:46:52;95302.22;;;23.06;50.98
61674;BME280;47573;43.832;5.974;2023-04-06T11:53:43;95287.50;;;23.07;44.33
61674;BME280;47573;43.832;5.974;2023-04-06T12:00:24;95275.44;;;23.03;48.46
61674;BME280;47573;43.832;5.974;2023-04-06T12:07:06;95264.31;;;23.04;48.66
61674;BME280;47573;43.832;5.974;2023-04-06T12:13:46;95259.69;;;23.05;48.49
61674;BME280;47573;43.832;5.974;2023-04-06T12:20:28;95252.69;;;23.09;48.71
61674;BME280;47573;43.832;5.974;2023-04-06T12:27:10;95244.75;;;23.07;49.34
61674;BME280;47573;43.832;5.974;2023-04-06T12:33:51;95243.44;;;23.10;49.53
61674;BME280;47573;43.832;5.974;2023-04-06T12:40:36;95227.13;;;23.10;49.69
61674;BME280;47573;43.832;5.974;2023-04-06T12:47:18;95242.28;;;23.06;49.94
61674;BME280;47573;43.832;5.974;2023-04-06T12:53:58;95231.41;;;23.06;49.69
61674;BME280;47573;43.832;5.974;2023-04-06T13:00:39;95224.28;;;23.05;50.41
61674;BME280;47573;43.832;5.974;2023-04-06T13:07:21;95218.25;;;23.03;50.24
61674;BME280;47573;43.832;5.974;2023-04-06T13:14:02;95201.34;;;23.01;50.44
61674;BME280;47573;43.832;5.974;2023-04-06T13:20:43;95201.50;;;23.11;50.39
61674;BME280;47573;43.832;5.974;2023-04-06T13:27:24;95202.50;;;23.22;50.74
61674;BME280;47573;43.832;5.974;2023-04-06T13:34:05;95197.59;;;23.35;51.29
61674;BME280;47573;43.832;5.974;2023-04-06T13:40:46;95182.56;;;23.33;51.60
61674;BME280;47573;43.832;5.974;2023-04-06T13:47:28;95183.72;;;23.37;51.99
61674;BME280;47573;43.832;5.974;2023-04-06T13:54:08;95182.56;;;23.49;52.03
61674;BME280;47573;43.832;5.974;2023-04-06T14:00:49;95175.59;;;23.58;52.10
61674;BME280;47573;43.832;5.974;2023-04-06T14:07:31;95160.06;;;23.59;52.44
61674;BME280;47573;43.832;5.974;2023-04-06T14:14:11;95147.84;;;23.61;53.10
61674;BME280;47573;43.832;5.974;2023-04-06T14:20:54;95152.94;;;23.74;52.85
61674;BME280;47573;43.832;5.974;2023-04-06T14:27:36;95151.38;;;23.78;53.02
61674;BME280;47573;43.832;5.974;2023-04-06T14:34:17;95153.66;;;23.86;52.74
61674;BME280;47573;43.832;5.974;2023-04-06T14:40:57;95153.22;;;23.94;52.88
61674;BME280;47573;43.832;5.974;2023-04-06T14:47:39;95142.31;;;23.94;53.77
61674;BME280;47573;43.832;5.974;2023-04-06T14:54:20;95141.28;;;24.01;53.51
61674;BME280;47573;43.832;5.974;2023-04-06T15:01:01;95142.97;;;24.02;53.99
61674;BME280;47573;43.832;5.974;2023-04-06T15:07:43;95138.66;;;24.06;54.36
61674;BME280;47573;43.832;5.974;2023-04-06T15:14:24;95133.78;;;24.08;54.71
61674;BME280;47573;43.832;5.974;2023-04-06T15:21:05;95132.75;;;24.14;54.49
61674;BME280;47573;43.832;5.974;2023-04-06T15:27:46;95127.34;;;24.19;54.85
61674;BME280;47573;43.832;5.974;2023-04-06T15:34:30;95117.00;;;24.21;54.93
61674;BME280;47573;43.832;5.974;2023-04-06T15:41:10;95107.19;;;24.20;55.24
61674;BME280;47573;43.832;5.974;2023-04-06T15:47:54;95109.47;;;24.28;54.89
61674;BME280;47573;43.832;5.974;2023-04-06T15:54:35;95090.94;;;24.30;55.17
61674;BME280;47573;43.832;5.974;2023-04-06T16:01:16;95094.22;;;24.32;55.47
61674;BME280;47573;43.832;5.974;2023-04-06T16:07:58;95083.31;;;24.32;55.85
61674;BME280;47573;43.832;5.974;2023-04-06T16:14:39;95081.44;;;24.37;55.81
61674;BME280;47573;43.832;5.974;2023-04-06T16:21:19;95079.81;;;24.36;56.09
61674;BME280;47573;43.832;5.974;2023-04-06T16:28:01;95067.03;;;24.42;55.47
61674;BME280;47573;43.832;5.974;2023-04-06T16:34:42;95063.81;;;24.45;56.00
61674;BME280;47573;43.832;5.974;2023-04-06T16:41:22;95057.34;;;24.56;55.93
61674;BME280;47573;43.832;5.974;2023-04-06T16:48:04;95059.28;;;24.60;55.93
61674;BME280;47573;43.832;5.974;2023-04-06T16:54:45;95053.06;;;24.65;56.00
61674;BME280;47573;43.832;5.974;2023-04-06T17:01:26;95060.22;;;24.71;55.92
61674;BME280;47573;43.832;5.974;2023-04-06T17:08:08;95053.69;;;24.72;56.60
61674;BME280;47573;43.832;5.974;2023-04-06T17:14:49;95058.13;;;24.78;56.60
61674;BME280;47573;43.832;5.974;2023-04-06T17:21:30;95052.09;;;24.76;47.11
61674;BME280;47573;43.832;5.974;2023-04-06T17:28:12;95066.22;;;24.68;50.48
61674;BME280;47573;43.832;5.974;2023-04-06T17:34:52;95064.16;;;24.80;54.39
61674;BME280;47573;43.832;5.974;2023-04-06T17:41:33;95071.25;;;24.81;55.39
61674;BME280;47573;43.832;5.974;2023-04-06T17:48:15;95072.91;;;24.82;56.04
61674;BME280;47573;43.832;5.974;2023-04-06T17:54:56;95077.31;;;24.88;54.13
61674;BME280;47573;43.832;5.974;2023-04-06T18:01:37;95081.09;;;24.82;55.85
61674;BME280;47573;43.832;5.974;2023-04-06T18:08:19;95087.13;;;24.84;54.89
61674;BME280;47573;43.832;5.974;2023-04-06T18:15:00;95097.00;;;24.90;56.28
61674;BME280;47573;43.832;5.974;2023-04-06T18:21:41;95106.81;;;24.91;56.88
61674;BME280;47573;43.832;5.974;2023-04-06T18:28:22;95109.09;;;24.99;56.46
61674;BME280;47573;43.832;5.974;2023-04-06T18:35:04;95112.34;;;24.96;57.00
61674;BME280;47573;43.832;5.974;2023-04-06T18:41:44;95119.16;;;24.94;57.76
61674;BME280;47573;43.832;5.974;2023-04-06T18:48:26;95129.88;;;25.00;58.18
61674;BME280;47573;43.832;5.974;2023-04-06T18:55:08;95135.41;;;25.10;56.17
61674;BME280;47573;43.832;5.974;2023-04-06T19:01:48;95141.06;;;25.35;59.74
61674;BME280;47573;43.832;5.974;2023-04-06T19:08:30;95138.97;;;25.42;61.96
61674;BME280;47573;43.832;5.974;2023-04-06T19:15:11;95142.84;;;25.46;63.89
61674;BME280;47573;43.832;5.974;2023-04-06T19:21:52;95157.06;;;25.48;64.87
61674;BME280;47573;43.832;5.974;2023-04-06T19:28:34;95158.69;;;25.49;64.51
61674;BME280;47573;43.832;5.974;2023-04-06T19:35:14;95169.63;;;25.49;64.41
61674;BME280;47573;43.832;5.974;2023-04-06T19:41:55;95181.13;;;25.51;64.15
61674;BME280;47573;43.832;5.974;2023-04-06T19:48:37;95194.56;;;25.58;64.08
61674;BME280;47573;43.832;5.974;2023-04-06T19:55:17;95191.84;;;25.58;63.90
61674;BME280;47573;43.832;5.974;2023-04-06T20:01:58;95190.31;;;25.40;63.53
61674;BME280;47573;43.832;5.974;2023-04-06T20:08:40;95194.31;;;25.28;63.55
61674;BME280;47573;43.832;5.974;2023-04-06T20:15:21;95198.34;;;25.20;63.39
61674;BME280;47573;43.832;5.974;2023-04-06T20:22:01;95201.59;;;25.17;63.09
61674;BME280;47573;43.832;5.974;2023-04-06T20:28:43;95181.81;;;25.05;63.00
61674;BME280;47573;43.832;5.974;2023-04-06T20:35:24;95189.44;;;25.03;62.72
61674;BME280;47573;43.832;5.974;2023-04-06T20:42:05;95186.88;;;24.92;62.43
61674;BME280;47573;43.832;5.974;2023-04-06T20:48:47;95178.63;;;24.87;62.24
61674;BME280;47573;43.832;5.974;2023-04-06T20:55:28;95184.31;;;24.80;62.41
61674;BME280;47573;43.832;5.974;2023-04-06T21:02:09;95190.78;;;24.74;62.21
61674;BME280;47573;43.832;5.974;2023-04-06T21:08:51;95186.34;;;24.68;62.29
61674;BME280;47573;43.832;5.974;2023-04-06T21:15:31;95191.16;;;24.61;62.42
61674;BME280;47573;43.832;5.974;2023-04-06T21:22:12;95185.97;;;24.59;61.94
61674;BME280;47573;43.832;5.974;2023-04-06T21:28:54;95180.16;;;24.56;61.82
61674;BME280;47573;43.832;5.974;2023-04-06T21:35:37;95179.09;;;24.57;61.71
61674;BME280;47573;43.832;5.974;2023-04-06T21:42:17;95164.03;;;24.49;62.21
61674;BME280;47573;43.832;5.974;2023-04-06T21:48:59;95162.56;;;24.42;61.86
61674;BME280;47573;43.832;5.974;2023-04-06T21:55:43;95170.44;;;24.38;61.78
61674;BME280;47573;43.832;5.974;2023-04-06T22:02:23;95157.06;;;24.37;62.07
61674;BME280;47573;43.832;5.974;2023-04-06T22:09:05;95168.97;;;24.31;61.46
61674;BME280;47573;43.832;5.974;2023-04-06T22:15:46;95163.72;;;24.24;61.65
61674;BME280;47573;43.832;5.974;2023-04-06T22:22:35;95167.78;;;24.22;61.91
61674;BME280;47573;43.832;5.974;2023-04-06T22:29:17;95163.06;;;24.17;61.52
61674;BME280;47573;43.832;5.974;2023-04-06T22:35:57;95169.25;;;24.08;61.28
61674;BME280;47573;43.832;5.974;2023-04-06T22:42:38;95162.97;;;24.07;61.55
61674;BME280;47573;43.832;5.974;2023-04-06T22:49:20;95170.22;;;24.02;61.19
61674;BME280;47573;43.832;5.974;2023-04-06T22:56:01;95157.09;;;23.98;61.31
61674;BME280;47573;43.832;5.974;2023-04-06T23:02:41;95153.22;;;23.94;61.13
61674;BME280;47573;43.832;5.974;2023-04-06T23:09:23;95140.34;;;23.90;60.86
61674;BME280;47573;43.832;5.974;2023-04-06T23:16:03;95134.84;;;23.85;61.25
61674;BME280;47573;43.832;5.974;2023-04-06T23:22:44;95127.97;;;23.82;60.87
61674;BME280;47573;43.832;5.974;2023-04-06T23:29:26;95131.16;;;23.74;60.64
61674;BME280;47573;43.832;5.974;2023-04-06T23:36:07;95119.91;;;23.71;60.65
61674;BME280;47573;43.832;5.974;2023-04-06T23:42:48;95132.16;;;23.68;60.46
61674;BME280;47573;43.832;5.974;2023-04-06T23:49:30;95128.50;;;23.63;60.76
61674;BME280;47573;43.832;5.974;2023-04-06T23:56:12;95128.19;;;23.59;60.59
